Terminal Aerodrome Forecast
Issued by NWS

Home | Current Version | Previous Version | Text Only | Print | Product List | Glossary On
Versions: 1 2 3 4 5 6 7 8 9 10 11 12 13
000
FTUS42 TJSJ 291700
TAFIST
TAF
TIST 291735Z 2918/3018 15011KT P6SM SKC
     FM292300 10008KT P6SM FEW025
     FM300300 09004KT P6SM SKC
     FM301200 11010KT P6SM SKC=

USA.gov is the U.S. government's official web portal to all federal, state and local government web resources and services.